Time;durP1;ratioP1;P1;durP2;ratioP2;P2;SDS_P1;SDS_P2;PMS_P1;PMS_P2;Temp;Humidity;BMP_temperature;BMP_pressure;BME280_temperature;BME280_humidity;BME280_pressure;Samples;Min_cycle;Max_cycle;Signal;HPM_P1;HPM_P2
2021/12/16 00:01:44;;;;;;;11.32;3.88;;;;;;;9.69;74.84;101932.59;5003342;28;20053;-53
2021/12/16 00:09:02;;;;;;;8.73;3.20;;;;;;;9.71;74.81;101936.13;5002662;28;20045;-53
2021/12/16 00:31:21;;;;;;;8.70;3.30;;;;;;;9.67;74.13;101944.63;5003202;28;20724;-53
2021/12/16 00:34:00;;;;;;;7.32;3.53;;;;;;;9.67;74.79;101946.31;5001866;28;20069;-49
2021/12/16 00:36:33;;;;;;;8.38;4.18;;;;;;;9.67;73.92;101948.91;5000492;28;20402;-54
2021/12/16 00:39:08;;;;;;;7.93;3.45;;;;;;;9.66;74.56;101953.19;4994038;28;20097;-49
2021/12/16 00:41:36;;;;;;;8.13;2.70;;;;;;;9.67;74.08;101954.97;5001688;28;20470;-54
2021/12/16 00:44:19;;;;;;;10.23;4.20;;;;;;;9.67;74.15;101954.97;4997251;28;20411;-55
2021/12/16 00:47:26;;;;;;;7.68;2.95;;;;;;;9.68;73.91;101950.66;4999920;28;20058;-53
2021/12/16 00:49:36;;;;;;;8.43;3.05;;;;;;;9.68;74.12;101956.72;5003736;28;20482;-51
2021/12/16 00:55:06;;;;;;;6.72;2.20;;;;;;;9.72;73.78;101958.56;5000940;28;20528;-54
2021/12/16 00:57:33;;;;;;;4.47;2.42;;;;;;;9.72;73.64;101955.97;4995539;28;20500;-54
2021/12/16 01:00:03;;;;;;;4.32;2.40;;;;;;;9.75;73.16;101962.97;4999644;28;20058;-53
2021/12/16 01:02:49;;;;;;;6.18;2.47;;;;;;;9.74;73.29;101962.09;5001996;28;20050;-49
2021/12/16 01:05:48;;;;;;;5.47;3.92;;;;;;;9.73;73.18;101968.09;5000975;28;20421;-50
2021/12/16 01:08:21;;;;;;;6.10;2.80;;;;;;;9.72;73.32;101968.94;5001371;28;20065;-51
2021/12/16 01:36:28;;;;;;;5.38;2.35;;;;;;;9.50;73.50;101983.75;4993483;28;20046;-50
2021/12/16 01:39:38;;;;;;;6.80;2.50;;;;;;;9.49;73.43;101974.22;4997842;28;20100;-54
2021/12/16 01:50:08;;;;;;;6.68;2.65;;;;;;;9.55;72.67;101990.81;4994854;28;20105;-53
2021/12/16 01:53:00;;;;;;;6.32;2.80;;;;;;;9.56;73.28;101982.22;4998042;28;20434;-52
2021/12/16 01:55:31;;;;;;;5.13;2.15;;;;;;;9.57;73.30;101983.97;4988505;28;20107;-54
2021/12/16 01:58:10;;;;;;;5.35;1.90;;;;;;;9.58;72.82;101986.59;4998832;28;21078;-49
2021/12/16 02:00:56;;;;;;;4.50;1.80;;;;;;;9.57;72.26;101984.84;4997206;28;20083;-49
2021/12/16 02:03:37;;;;;;;4.55;2.03;;;;;;;9.60;72.70;101991.81;5002842;28;20129;-52
2021/12/16 02:06:15;;;;;;;5.45;2.25;;;;;;;9.59;73.20;101990.06;4997785;28;20058;-50
2021/12/16 02:08:41;;;;;;;5.40;1.83;;;;;;;9.59;73.39;101987.50;4997643;28;20612;-54
2021/12/16 02:11:22;;;;;;;7.88;2.53;;;;;;;9.61;72.64;101996.16;5001509;28;20065;-53
2021/12/16 02:28:12;;;;;;;6.88;2.13;;;;;;;9.39;73.33;102005.78;4996751;28;20046;-52
2021/12/16 02:36:28;;;;;;;6.40;2.30;;;;;;;9.25;73.18;101993.28;5002111;28;20498;-53
2021/12/16 02:39:00;;;;;;;7.75;2.38;;;;;;;9.23;73.37;102002.66;4995783;28;20052;-53
2021/12/16 02:41:28;;;;;;;4.00;2.42;;;;;;;9.23;73.06;101994.91;5000129;28;20056;-50
2021/12/16 02:49:34;;;;;;;8.55;3.05;;;;;;;9.27;73.20;102001.09;4989619;28;20501;-53
2021/12/16 02:52:01;;;;;;;6.80;2.35;;;;;;;9.30;73.48;102000.31;4990855;28;20041;-49
2021/12/16 02:54:28;;;;;;;6.35;2.60;;;;;;;9.32;73.46;101998.66;4994599;28;20498;-52
2021/12/16 02:56:55;;;;;;;10.65;2.80;;;;;;;9.33;73.44;102000.41;4993515;28;20100;-47
2021/12/16 02:59:27;;;;;;;7.32;2.72;;;;;;;9.32;73.43;101998.66;4994397;28;20493;-54
2021/12/16 03:01:57;;;;;;;9.18;3.38;;;;;;;9.32;73.55;101998.66;4991182;28;20778;-54
2021/12/16 03:04:26;;;;;;;;;;;;;;;9.20;74.08;102002.59;4997588;28;20057;-52
2021/12/16 03:06:56;;;;;;;10.25;3.00;;;;;;;9.30;73.74;102003.78;4999568;28;19921;-51
2021/12/16 03:09:55;;;;;;;10.93;3.97;;;;;;;9.32;73.60;102009.00;4999709;28;20601;-51
2021/12/16 03:13:10;;;;;;;10.52;3.58;;;;;;;9.32;73.39;102009.00;5004175;28;21739;-52
2021/12/16 03:15:11;;;;;;;9.60;3.30;;;;;;;9.34;73.62;102012.50;5001139;28;20058;-52
2021/12/16 03:18:07;;;;;;;9.07;3.08;;;;;;;9.34;73.72;102007.34;5001522;28;20120;-51
2021/12/16 03:20:37;;;;;;;9.55;3.42;;;;;;;9.34;74.08;102009.94;5002335;28;20494;-52
2021/12/16 03:23:22;;;;;;;8.93;4.25;;;;;;;9.34;73.80;102007.34;5000708;28;20417;-49
2021/12/16 03:29:02;;;;;;;6.70;3.15;;;;;;;9.35;73.70;101999.63;5003567;28;20108;-47
2021/12/16 03:31:55;;;;;;;7.38;3.13;;;;;;;9.37;73.84;102007.44;5001357;28;20473;-48
2021/12/16 03:37:18;;;;;;;7.53;3.50;;;;;;;9.37;73.65;102005.75;4999104;28;20042;-52
2021/12/16 03:39:53;;;;;;;7.72;3.10;;;;;;;9.36;73.86;102008.28;5000724;28;20050;-53
2021/12/16 03:42:26;;;;;;;8.13;3.10;;;;;;;9.32;73.66;102006.44;5000785;28;20077;-52
2021/12/16 03:44:59;;;;;;;11.40;3.38;;;;;;;9.28;73.73;101999.41;5000003;28;20100;-53
2021/12/16 03:47:36;;;;;;;7.38;3.10;;;;;;;9.20;73.73;102007.75;5000188;28;20049;-50
2021/12/16 03:50:07;;;;;;;9.55;3.10;;;;;;;9.15;73.95;102000.69;5003353;28;20042;-51
2021/12/16 03:52:34;;;;;;;7.38;3.13;;;;;;;9.09;73.86;102003.94;4997097;28;20511;-50
2021/12/16 03:55:02;;;;;;;9.40;3.30;;;;;;;9.03;74.45;102001.13;5002708;28;20057;-52
2021/12/16 03:57:31;;;;;;;13.82;3.38;;;;;;;8.96;73.87;102013.84;4988219;28;20065;-50
2021/12/16 03:59:58;;;;;;;8.70;3.20;;;;;;;8.91;74.16;102007.59;4989403;28;20057;-50
2021/12/16 04:02:30;;;;;;;6.20;2.85;;;;;;;8.84;74.14;102015.97;4988929;28;20111;-53
2021/12/16 04:04:58;;;;;;;9.02;3.80;;;;;;;8.79;74.24;102012.34;4989647;28;20058;-52
2021/12/16 04:07:30;;;;;;;8.55;3.70;;;;;;;8.72;74.16;102022.44;4997351;28;20046;-51
2021/12/16 04:09:58;;;;;;;9.32;3.50;;;;;;;8.67;74.57;102021.41;4995404;28;20054;-52
2021/12/16 04:12:26;;;;;;;8.38;3.40;;;;;;;8.64;74.77;102023.00;4991577;28;20050;-53
2021/12/16 04:14:57;;;;;;;9.18;3.45;;;;;;;8.60;74.18;102033.22;4993044;28;20046;-48
2021/12/16 04:17:26;;;;;;;7.40;3.05;;;;;;;8.57;74.59;102020.19;4988390;28;20045;-53
2021/12/16 04:19:53;;;;;;;11.63;3.65;;;;;;;8.54;74.37;102021.78;4991559;28;20793;-48
2021/12/16 04:22:28;;;;;;;8.27;3.72;;;;;;;8.51;74.15;102016.47;4992361;28;20069;-52
2021/12/16 04:24:57;;;;;;;10.20;3.60;;;;;;;8.46;74.73;102017.16;4990730;28;20105;-53
2021/12/16 04:27:24;;;;;;;9.95;3.80;;;;;;;8.44;75.03;102023.09;4988700;28;20054;-52
2021/12/16 04:29:51;;;;;;;11.00;3.63;;;;;;;8.41;75.66;102021.25;4991810;28;20049;-50
2021/12/16 04:32:19;;;;;;;7.90;3.13;;;;;;;8.37;74.57;102024.53;4990441;28;20057;-51
2021/12/16 04:34:46;;;;;;;5.80;2.60;;;;;;;8.35;75.20;102023.63;4990187;28;20060;-48
2021/12/16 04:37:13;;;;;;;8.77;3.42;;;;;;;8.34;75.47;102024.41;4988903;28;20061;-48
2021/12/16 04:39:42;;;;;;;9.35;3.00;;;;;;;8.31;75.73;102029.50;4990092;28;20057;-52
2021/12/16 04:42:10;;;;;;;9.65;3.35;;;;;;;8.29;75.46;102032.00;4992479;28;20042;-53
2021/12/16 04:44:39;;;;;;;9.75;3.67;;;;;;;8.25;75.73;102030.13;4989386;28;20057;-49
2021/12/16 04:47:06;;;;;;;10.00;4.35;;;;;;;8.23;75.62;102037.81;4989248;28;20065;-53
2021/12/16 04:49:33;;;;;;;10.98;3.35;;;;;;;8.22;75.48;102046.38;4990838;28;20065;-53
2021/12/16 04:52:07;;;;;;;7.80;4.57;;;;;;;8.18;75.52;102043.63;4989479;28;20050;-53
2021/12/16 04:54:35;;;;;;;8.10;3.65;;;;;;;8.16;75.51;102050.41;4989980;28;20085;-51
2021/12/16 04:57:02;;;;;;;9.50;3.47;;;;;;;8.16;75.12;102059.03;4992340;28;20049;-52
2021/12/16 04:59:31;;;;;;;7.38;2.88;;;;;;;8.18;75.55;102059.97;4991438;28;20061;-48
2021/12/16 05:02:02;;;;;;;9.27;2.90;;;;;;;8.19;75.32;102051.44;4989239;28;20103;-50
2021/12/16 05:04:29;;;;;;;6.93;3.22;;;;;;;8.22;75.21;102053.25;4988758;28;20042;-53
2021/12/16 05:06:55;;;;;;;9.98;3.53;;;;;;;8.26;75.18;102054.22;4998088;28;20042;-52
2021/12/16 05:10:02;;;;;;;9.70;3.97;;;;;;;8.26;75.10;102056.81;5004011;28;20046;-51
2021/12/16 05:12:14;;;;;;;11.02;3.78;;;;;;;8.27;75.04;102058.59;5002336;28;20050;-50
2021/12/16 05:14:41;;;;;;;7.15;3.35;;;;;;;8.28;75.13;102068.09;4999936;28;20109;-48
2021/12/16 05:17:21;;;;;;;8.10;3.22;;;;;;;8.29;75.76;102062.09;5002091;28;20117;-49
2021/12/16 05:19:51;;;;;;;10.57;3.20;;;;;;;8.32;75.99;102059.66;4998068;28;20054;-52
2021/12/16 05:25:17;;;;;;;9.15;3.83;;;;;;;8.36;75.62;102070.16;5000758;28;20046;-50
2021/12/16 05:27:44;;;;;;;7.47;3.47;;;;;;;8.41;75.73;102083.22;4998633;28;20058;-52
2021/12/16 05:30:12;;;;;;;7.75;3.72;;;;;;;8.45;75.60;102082.53;4999511;28;20052;-51
2021/12/16 05:32:45;;;;;;;8.73;3.30;;;;;;;8.49;74.55;102087.00;4995974;28;20053;-50
2021/12/16 05:35:16;;;;;;;11.15;3.53;;;;;;;8.54;75.77;102092.38;5007773;28;20170;-52
2021/12/16 05:37:45;;;;;;;9.85;3.55;;;;;;;8.58;74.80;102093.41;4999254;28;20081;-49
2021/12/16 05:40:15;;;;;;;9.68;3.45;;;;;;;8.62;75.13;102092.69;5006674;28;20490;-52
2021/12/16 05:42:42;;;;;;;7.97;3.28;;;;;;;8.65;75.50;102097.94;4999756;28;20050;-51
2021/12/16 05:45:11;;;;;;;8.02;3.63;;;;;;;8.69;75.60;102106.72;4999222;28;20096;-50
2021/12/16 05:47:38;;;;;;;12.90;3.65;;;;;;;8.71;75.46;102103.34;5002224;28;20053;-52
2021/12/16 05:50:07;;;;;;;8.13;3.13;;;;;;;8.74;75.05;102103.47;5000097;28;20054;-50
2021/12/16 05:52:34;;;;;;;8.10;3.22;;;;;;;8.79;75.61;102100.19;5005796;28;20168;-47
2021/12/16 05:55:01;;;;;;;9.38;3.90;;;;;;;8.82;74.87;102108.06;5001004;28;20049;-49
2021/12/16 05:57:28;;;;;;;7.10;3.55;;;;;;;8.85;75.03;102108.19;5002782;28;20048;-51
2021/12/16 05:59:55;;;;;;;7.40;3.13;;;;;;;8.87;75.41;102122.03;5002170;28;20124;-51
2021/12/16 06:02:21;;;;;;;10.02;3.92;;;;;;;8.90;74.79;102119.56;4997321;28;20489;-52
2021/12/16 06:04:50;;;;;;;6.82;3.20;;;;;;;8.92;75.65;102112.72;5002441;28;20081;-50
2021/12/16 06:07:18;;;;;;;12.57;4.68;;;;;;;8.95;75.36;102123.19;4991272;28;20046;-51
2021/12/16 06:09:47;;;;;;;7.50;3.03;;;;;;;8.97;75.37;102121.56;4994907;28;20050;-53
2021/12/16 06:12:15;;;;;;;8.32;3.40;;;;;;;9.00;75.28;102129.44;4991998;28;20074;-50
2021/12/16 06:26:26;;;;;;;8.32;2.70;;;;;;;9.11;74.99;102134.09;5002191;28;20111;-52
2021/12/16 06:28:37;;;;;;;8.75;3.10;;;;;;;9.16;75.29;102142.94;4995430;28;20054;-54
2021/12/16 06:31:15;;;;;;;7.85;3.40;;;;;;;9.19;74.82;102150.78;5004257;28;20060;-55
2021/12/16 06:33:42;;;;;;;7.65;2.95;;;;;;;9.21;75.20;102151.72;4997598;28;20046;-54
2021/12/16 06:36:09;;;;;;;9.65;3.15;;;;;;;9.23;75.07;102149.19;4999842;28;20037;-50
2021/12/16 06:38:36;;;;;;;6.25;2.70;;;;;;;9.24;75.24;102154.44;5005875;28;20053;-54
2021/12/16 06:41:03;;;;;;;6.13;2.97;;;;;;;9.28;75.06;102162.31;5003986;28;20050;-53
2021/12/16 06:43:31;;;;;;;14.07;3.25;;;;;;;9.26;74.89;102155.34;5002997;28;20050;-48
2021/12/16 06:46:01;;;;;;;7.20;3.58;;;;;;;9.30;74.88;102158.06;5000306;28;20058;-54
2021/12/16 06:48:31;;;;;;;9.32;3.35;;;;;;;9.33;74.99;102163.34;5003366;28;20057;-54
2021/12/16 06:51:04;;;;;;;8.73;3.47;;;;;;;9.34;74.46;102162.50;5007532;28;20054;-52
2021/12/16 06:53:45;;;;;;;6.88;3.20;;;;;;;9.35;74.50;102166.84;5004938;28;20100;-54
2021/12/16 06:56:19;;;;;;;6.78;3.03;;;;;;;9.35;74.89;102170.34;5002251;28;20050;-55
2021/12/16 06:58:51;;;;;;;8.48;4.05;;;;;;;9.37;74.31;102176.44;5001883;28;20056;-54
2021/12/16 07:01:40;;;;;;;7.68;2.90;;;;;;;9.37;74.71;102178.16;5002756;28;20145;-54
2021/12/16 07:04:13;;;;;;;8.38;3.13;;;;;;;9.36;74.50;102179.84;5004331;28;20052;-55
2021/12/16 07:06:41;;;;;;;6.65;3.55;;;;;;;9.40;74.96;102180.84;5002071;28;20075;-54
2021/12/16 07:09:13;;;;;;;12.40;3.40;;;;;;;9.40;74.53;102183.44;5003481;28;20042;-54
2021/12/16 07:11:42;;;;;;;7.50;3.03;;;;;;;9.41;74.17;102179.13;5002601;28;20049;-53
2021/12/16 07:14:14;;;;;;;7.10;3.53;;;;;;;9.42;74.11;102197.28;4998936;28;20054;-51
2021/12/16 07:16:44;;;;;;;8.98;3.65;;;;;;;9.44;74.58;102202.53;5000248;28;20111;-53
2021/12/16 07:19:11;;;;;;;8.20;3.40;;;;;;;9.44;74.32;102207.69;5004362;28;20053;-53
2021/12/16 07:21:38;;;;;;;13.07;4.43;;;;;;;9.45;74.53;102209.44;5007076;28;20433;-52
2021/12/16 07:24:09;;;;;;;7.10;3.58;;;;;;;9.44;74.43;102211.19;4999900;28;20456;-54
2021/12/16 07:26:36;;;;;;;9.73;3.67;;;;;;;9.44;74.18;102206.00;5000610;28;20048;-50
2021/12/16 07:29:05;;;;;;;9.43;4.00;;;;;;;9.43;74.64;102204.25;5002711;28;20462;-52
2021/12/16 07:31:33;;;;;;;7.10;3.17;;;;;;;9.43;74.48;102204.25;5003183;28;20040;-51
2021/12/16 07:34:00;;;;;;;6.78;2.85;;;;;;;9.42;74.40;102212.81;5003987;28;20043;-51
2021/12/16 07:36:30;;;;;;;7.60;3.83;;;;;;;9.42;74.36;102215.41;5010293;28;20398;-51
2021/12/16 07:38:57;;;;;;;9.65;3.60;;;;;;;9.43;74.31;102219.78;5004621;28;20057;-51
2021/12/16 07:41:26;;;;;;;9.48;3.70;;;;;;;9.42;74.11;102217.97;4999521;28;20054;-52
2021/12/16 07:44:09;;;;;;;8.70;3.83;;;;;;;9.42;74.36;102217.97;4999552;28;20046;-54
2021/12/16 07:46:40;;;;;;;6.43;2.95;;;;;;;9.43;74.40;102230.13;4998184;28;20041;-50
2021/12/16 07:49:10;;;;;;;7.68;3.20;;;;;;;9.43;74.14;102230.13;5006657;28;20061;-54
2021/12/16 07:51:37;;;;;;;;;;;;;;;9.33;73.94;102228.88;4998723;28;20108;-53
2021/12/16 07:54:05;;;;;;;6.80;2.85;;;;;;;9.43;74.53;102229.22;5002372;28;19922;-53
2021/12/16 07:56:32;;;;;;;7.95;3.58;;;;;;;9.43;74.34;102234.41;5002454;28;20054;-49
2021/12/16 07:58:59;;;;;;;6.32;3.67;;;;;;;9.45;74.24;102241.38;5003492;28;20037;-50
2021/12/16 08:01:27;;;;;;;6.90;2.83;;;;;;;9.45;74.20;102243.97;5001862;28;20050;-49
2021/12/16 08:03:55;;;;;;;7.25;3.60;;;;;;;9.48;74.34;102244.09;5001908;28;20054;-52
2021/12/16 08:06:26;;;;;;;9.23;3.70;;;;;;;9.48;73.98;102251.84;5004605;28;20053;-51
2021/12/16 08:08:57;;;;;;;8.52;3.30;;;;;;;9.50;73.74;102251.91;5000326;28;20553;-52
2021/12/16 08:11:26;;;;;;;6.60;3.17;;;;;;;9.50;73.63;102254.50;5006566;28;20101;-53
2021/12/16 08:13:53;;;;;;;9.88;3.05;;;;;;;9.51;74.07;102258.84;4998958;28;20124;-51
2021/12/16 08:16:22;;;;;;;11.57;3.45;;;;;;;9.51;74.02;102259.72;4999650;28;20053;-51
2021/12/16 08:18:50;;;;;;;7.45;2.90;;;;;;;9.51;73.84;102259.72;5001933;28;20050;-53
2021/12/16 08:21:18;;;;;;;8.80;3.08;;;;;;;9.52;74.26;102265.78;5001827;28;20038;-53
2021/12/16 08:23:45;;;;;;;7.53;3.63;;;;;;;9.52;74.00;102269.25;5000398;28;20046;-51
2021/12/16 08:26:15;;;;;;;9.13;4.15;;;;;;;9.51;74.09;102270.09;5008395;28;20490;-50
2021/12/16 08:28:43;;;;;;;7.72;3.30;;;;;;;9.52;73.82;102277.00;5004353;28;20051;-54
2021/12/16 08:31:11;;;;;;;7.60;3.53;;;;;;;9.54;73.89;102278.75;4994873;28;20050;-52
2021/12/16 08:33:39;;;;;;;7.47;3.20;;;;;;;9.54;73.39;102278.75;4990452;28;20042;-52
2021/12/16 08:36:08;;;;;;;7.50;3.22;;;;;;;9.54;73.68;102281.34;4993849;28;20057;-53
2021/12/16 08:38:37;;;;;;;7.60;3.40;;;;;;;9.54;73.77;102284.84;4997422;28;20093;-54
2021/12/16 08:41:09;;;;;;;8.23;3.05;;;;;;;9.54;73.70;102279.66;5004543;28;20066;-52
2021/12/16 08:43:39;;;;;;;7.47;3.30;;;;;;;9.56;73.65;102283.16;4997704;28;20057;-52
2021/12/16 08:46:07;;;;;;;;;;;;;;;9.46;73.98;102287.09;4995249;28;20046;-52
2021/12/16 08:48:35;;;;;;;9.00;3.28;;;;;;;9.56;74.01;102292.66;5003468;28;19926;-54
2021/12/16 08:51:03;;;;;;;6.50;3.17;;;;;;;9.58;73.29;102298.75;4997608;28;20074;-52
2021/12/16 08:53:30;;;;;;;7.90;4.25;;;;;;;9.61;73.65;102304.03;4999947;28;20063;-50
2021/12/16 08:55:56;;;;;;;8.00;3.13;;;;;;;9.61;73.84;102297.19;5000379;28;20041;-53
2021/12/16 08:58:26;;;;;;;10.90;3.60;;;;;;;9.63;73.69;102302.41;4997826;28;20065;-54
2021/12/16 09:01:00;;;;;;;6.45;2.80;;;;;;;9.63;73.49;102311.03;5003609;28;20045;-52
2021/12/16 09:03:29;;;;;;;10.35;4.03;;;;;;;9.66;73.68;102306.81;4999295;28;20050;-51
2021/12/16 09:05:58;;;;;;;7.95;3.20;;;;;;;9.68;73.55;102312.91;4995726;28;20049;-54
2021/12/16 09:08:24;;;;;;;9.38;3.13;;;;;;;9.69;73.78;102314.69;4995398;28;20061;-54
2021/12/16 09:10:51;;;;;;;6.32;2.55;;;;;;;9.68;73.69;102324.16;4998419;28;20042;-51
2021/12/16 09:13:18;;;;;;;8.30;4.07;;;;;;;9.69;73.46;102319.88;4996432;28;20435;-54
2021/12/16 09:15:51;;;;;;;10.32;3.92;;;;;;;9.70;73.41;102316.47;5000085;28;20050;-52
2021/12/16 09:18:24;;;;;;;30.05;8.85;;;;;;;9.71;73.54;102323.38;4997650;28;20467;-53
2021/12/16 09:20:52;;;;;;;18.05;7.20;;;;;;;9.71;73.18;102320.78;4994457;28;20056;-51
2021/12/16 09:23:19;;;;;;;27.63;16.75;;;;;;;9.69;73.67;102320.75;5001112;28;20050;-52
2021/12/16 09:25:51;;;;;;;20.85;11.60;;;;;;;9.70;73.74;102317.34;5000083;28;20053;-53
2021/12/16 09:28:20;;;;;;;14.65;6.53;;;;;;;9.71;73.51;102324.28;4997877;28;20046;-54
2021/12/16 09:30:48;;;;;;;11.02;4.88;;;;;;;9.72;73.28;102323.44;5001979;28;20107;-51
2021/12/16 09:33:18;;;;;;;11.32;4.30;;;;;;;9.73;73.23;102335.56;4998363;28;20050;-52
2021/12/16 09:35:50;;;;;;;10.32;4.18;;;;;;;9.76;72.79;102327.91;4998322;28;20108;-53
2021/12/16 09:38:17;;;;;;;14.18;5.47;;;;;;;9.75;73.43;102331.34;4997979;28;20127;-50
2021/12/16 09:40:51;;;;;;;12.18;5.15;;;;;;;9.79;73.69;102331.44;4998925;28;20066;-49
2021/12/16 09:43:21;;;;;;;8.82;4.20;;;;;;;9.80;73.32;102338.38;4998670;28;20045;-51
2021/12/16 09:45:53;;;;;;;13.02;4.85;;;;;;;9.80;72.96;102338.38;5000546;28;20112;-52
2021/12/16 09:48:21;;;;;;;10.65;4.07;;;;;;;9.81;73.36;102348.78;4996729;28;20041;-55
2021/12/16 09:50:49;;;;;;;11.05;3.88;;;;;;;9.82;72.93;102347.97;4997916;28;20054;-51
2021/12/16 09:53:17;;;;;;;8.85;4.13;;;;;;;9.85;73.32;102347.19;4999168;28;20084;-51
2021/12/16 09:55:50;;;;;;;11.45;3.78;;;;;;;9.85;73.31;102347.19;4991435;28;20057;-54
2021/12/16 09:58:17;;;;;;;9.48;3.65;;;;;;;9.85;73.23;102348.09;5004653;28;20053;-53
2021/12/16 10:00:43;;;;;;;15.23;6.32;;;;;;;9.87;73.32;102348.16;4994646;28;20066;-53
2021/12/16 10:03:10;;;;;;;50.92;22.30;;;;;;;9.89;73.44;102354.25;4997255;28;20045;-52
2021/12/16 10:05:37;;;;;;;17.15;9.30;;;;;;;9.91;72.92;102357.78;4997952;28;20046;-51
2021/12/16 10:08:05;;;;;;;54.17;17.35;;;;;;;9.93;72.85;102355.25;4997295;28;20053;-50
2021/12/16 10:10:32;;;;;;;60.85;16.73;;;;;;;9.93;73.21;102358.72;4996653;28;20064;-51
2021/12/16 10:13:01;;;;;;;25.02;9.05;;;;;;;9.93;73.45;102350.94;5002095;28;20049;-53
2021/12/16 10:18:21;;;;;;;8.77;3.70;;;;;;;9.96;72.66;102361.41;5008660;28;20057;-49
2021/12/16 10:20:53;;;;;;;11.45;3.88;;;;;;;9.97;72.84;102362.31;4997206;28;20057;-53
2021/12/16 10:23:41;;;;;;;7.43;3.80;;;;;;;9.95;72.90;102364.84;4994234;28;20054;-54
2021/12/16 10:26:19;;;;;;;15.18;4.93;;;;;;;10.01;73.10;102369.38;5000348;28;21420;-49
2021/12/16 10:28:49;;;;;;;12.75;2.97;;;;;;;10.05;72.92;102375.53;4998718;28;20112;-51
2021/12/16 10:31:18;;;;;;;;;;;;;;;9.94;73.34;102378.63;4995978;28;20045;-53
2021/12/16 10:33:54;;;;;;;5.85;2.72;;;;;;;10.03;73.03;102378.94;4999466;28;19925;-51
2021/12/16 10:36:28;;;;;;;;;;;;;;;9.95;73.22;102380.38;4997337;28;20418;-50
2021/12/16 10:39:02;;;;;;;6.63;2.72;;;;;;;10.06;72.46;102385.06;5002692;28;19991;-53
2021/12/16 10:41:37;;;;;;;8.63;4.47;;;;;;;10.07;72.96;102387.72;4989416;28;20061;-52
2021/12/16 10:44:12;;;;;;;10.27;4.15;;;;;;;10.11;73.20;102396.47;4995767;28;20517;-52
2021/12/16 10:47:06;;;;;;;13.02;4.85;;;;;;;10.12;72.35;102388.78;4994572;28;20050;-53
2021/12/16 10:49:37;;;;;;;10.32;5.75;;;;;;;10.14;72.72;102391.41;4992445;28;20398;-53
2021/12/16 10:52:10;;;;;;;27.98;9.32;;;;;;;10.16;72.39;102387.16;4996897;28;20058;-53
2021/12/16 10:54:43;;;;;;;65.53;17.52;;;;;;;10.18;72.58;102382.94;4996912;28;20058;-54
2021/12/16 10:57:14;;;;;;;74.93;21.33;;;;;;;10.19;72.12;102389.88;4995568;28;20050;-52
2021/12/16 10:59:56;;;;;;;62.70;21.15;;;;;;;10.19;72.81;102384.69;5009857;28;20050;-53
2021/12/16 11:02:27;;;;;;;52.85;17.55;;;;;;;10.23;72.20;102391.75;4995220;28;20060;-54
2021/12/16 11:05:03;;;;;;;51.13;18.60;;;;;;;10.24;71.95;102383.13;4995651;28;20481;-53
2021/12/16 11:07:34;;;;;;;35.75;12.60;;;;;;;10.27;72.54;102383.25;4995784;28;20057;-51
2021/12/16 11:10:09;;;;;;;33.90;12.25;;;;;;;10.28;72.34;102377.28;4995814;28;20053;-53
2021/12/16 11:12:44;;;;;;;31.83;12.65;;;;;;;10.33;72.95;102381.72;4991745;28;20050;-51
2021/12/16 11:15:31;;;;;;;26.95;10.45;;;;;;;10.34;72.15;102386.06;4997546;28;20058;-53
2021/12/16 11:18:24;;;;;;;31.13;11.15;;;;;;;10.36;72.42;102387.00;4989253;28;20057;-55
2021/12/16 11:20:55;;;;;;;20.17;7.65;;;;;;;10.39;72.58;102387.13;4988263;28;20046;-51
2021/12/16 11:23:29;;;;;;;15.20;6.05;;;;;;;10.41;71.34;102386.34;4991126;28;20145;-51
2021/12/16 11:26:02;;;;;;;14.80;6.80;;;;;;;10.44;72.33;102384.69;5001434;28;20058;-53
2021/12/16 11:28:35;;;;;;;11.50;4.30;;;;;;;10.44;71.99;102385.59;4997348;28;20046;-51
2021/12/16 11:31:09;;;;;;;9.85;4.78;;;;;;;10.49;71.83;102388.34;4995543;28;20053;-52
2021/12/16 11:34:03;;;;;;;7.45;3.67;;;;;;;10.48;71.91;102382.31;4998854;28;20112;-52
2021/12/16 11:36:37;;;;;;;9.13;3.80;;;;;;;10.54;71.86;102382.50;5002523;28;20057;-52
2021/12/16 11:39:10;;;;;;;8.18;4.38;;;;;;;10.58;72.51;102382.63;5001629;28;20134;-53
2021/12/16 11:41:44;;;;;;;9.82;3.50;;;;;;;10.59;72.18;102380.09;4998318;28;20113;-54
2021/12/16 11:44:18;;;;;;;6.82;3.10;;;;;;;10.62;71.21;102381.91;4995892;28;20077;-54
2021/12/16 11:46:55;;;;;;;10.25;3.33;;;;;;;10.63;71.25;102391.44;5000950;28;20073;-51
2021/12/16 11:49:29;;;;;;;13.88;5.18;;;;;;;10.65;71.24;102387.19;4998668;28;20059;-54
2021/12/16 11:52:03;;;;;;;11.73;5.18;;;;;;;10.66;71.94;102386.34;5000055;28;20095;-54
2021/12/16 11:54:38;;;;;;;12.43;6.45;;;;;;;10.67;71.56;102389.00;4999456;28;20386;-54
2021/12/16 11:57:15;;;;;;;6.22;3.15;;;;;;;10.69;71.41;102391.66;4993244;28;20064;-53
2021/12/16 11:59:47;;;;;;;10.60;4.40;;;;;;;10.71;71.95;102389.97;4996018;28;20418;-54
2021/12/16 12:02:27;;;;;;;6.70;3.83;;;;;;;10.70;71.65;102390.81;4999172;28;20077;-53
2021/12/16 12:05:30;;;;;;;6.88;2.88;;;;;;;10.71;71.64;102387.38;5000788;28;20058;-52
2021/12/16 12:08:21;;;;;;;17.05;5.78;;;;;;;10.75;71.93;102391.88;4996017;28;20053;-51
2021/12/16 12:10:51;;;;;;;12.85;4.53;;;;;;;10.79;71.37;102398.03;4988104;28;20049;-54
2021/12/16 12:13:24;;;;;;;6.22;2.53;;;;;;;10.80;71.19;102399.78;5001755;28;20042;-51
2021/12/16 12:16:13;;;;;;;7.88;2.92;;;;;;;10.84;71.64;102405.97;4998769;28;20046;-51
2021/12/16 12:18:43;;;;;;;;;;;;;;;10.73;71.71;102398.72;5000193;28;20045;-51
2021/12/16 12:21:39;;;;;;;7.60;2.58;;;;;;;10.79;70.99;102400.63;5000134;28;19933;-53
2021/12/16 12:24:25;;;;;;;;;;;;;;;10.75;71.34;102402.25;4998511;28;20050;-51
2021/12/16 12:26:58;;;;;;;8.60;3.22;;;;;;;10.87;71.10;102411.25;4994732;28;19925;-54
2021/12/16 12:29:29;;;;;;;8.10;3.08;;;;;;;10.89;71.76;102409.59;4999257;28;20533;-52
2021/12/16 12:32:07;;;;;;;10.05;3.08;;;;;;;10.91;71.13;102413.13;5001947;28;20073;-53
2021/12/16 12:34:36;;;;;;;5.28;2.88;;;;;;;10.92;71.54;102407.97;4995461;28;20049;-52
2021/12/16 12:37:07;;;;;;;7.38;3.30;;;;;;;10.93;70.70;102395.91;5002248;28;20055;-53
2021/12/16 12:39:39;;;;;;;11.00;3.10;;;;;;;10.93;71.75;102403.69;4995119;28;20553;-52
2021/12/16 12:42:07;;;;;;;6.78;3.83;;;;;;;10.95;71.03;102406.34;4996726;28;20058;-50
2021/12/16 12:44:34;;;;;;;7.07;3.63;;;;;;;10.94;70.62;102408.03;5000444;28;20058;-52
2021/12/16 12:47:05;;;;;;;9.90;3.67;;;;;;;10.96;71.02;102410.69;4999557;28;20053;-50
2021/12/16 12:49:33;;;;;;;24.38;6.60;;;;;;;10.95;70.97;102407.22;5003506;28;20101;-52
2021/12/16 12:52:08;;;;;;;21.35;6.10;;;;;;;10.96;70.37;102405.50;5002322;28;20042;-52
2021/12/16 12:54:37;;;;;;;43.22;10.52;;;;;;;10.97;71.57;102413.31;5006888;28;20037;-54
2021/12/16 12:57:26;;;;;;;47.05;13.75;;;;;;;10.94;71.06;102413.22;4997136;28;20054;-51
2021/12/16 12:59:55;;;;;;;34.45;11.38;;;;;;;11.00;70.89;102407.34;4997875;28;20046;-52
2021/12/16 13:02:28;;;;;;;25.42;8.45;;;;;;;11.02;71.98;102411.75;5001946;28;20064;-51
2021/12/16 13:04:59;;;;;;;18.27;7.72;;;;;;;11.02;70.59;102416.94;5005770;28;20452;-51
2021/12/16 13:07:45;;;;;;;17.13;6.75;;;;;;;10.98;71.23;102420.28;5003464;28;20120;-53
2021/12/16 13:10:18;;;;;;;21.63;7.15;;;;;;;11.02;70.58;102418.69;4999889;28;20050;-52
2021/12/16 13:12:55;;;;;;;35.72;9.23;;;;;;;11.02;71.54;102411.75;4998222;28;20482;-52
2021/12/16 13:15:36;;;;;;;29.17;9.50;;;;;;;11.01;71.44;102417.78;5000400;28;20042;-52
2021/12/16 13:24:16;;;;;;;15.60;6.28;;;;;;;10.99;70.71;102416.88;5000692;28;20054;-52
2021/12/16 13:27:03;;;;;;;16.50;5.95;;;;;;;10.97;70.14;102413.31;4997358;28;20786;-53
2021/12/16 13:29:38;;;;;;;22.00;9.15;;;;;;;10.98;70.90;102420.28;4995949;28;20594;-53
2021/12/16 13:32:17;;;;;;;16.05;7.30;;;;;;;10.96;71.15;102416.75;4999542;28;20621;-55
2021/12/16 13:35:11;;;;;;;12.23;5.15;;;;;;;10.96;70.98;102421.06;5000899;28;20054;-55
2021/12/16 13:37:41;;;;;;;25.10;7.78;;;;;;;10.96;70.98;102411.56;5000252;28;20046;-55
2021/12/16 13:40:19;;;;;;;20.05;7.53;;;;;;;10.93;70.94;102411.47;4995271;28;20489;-53
2021/12/16 13:42:59;;;;;;;19.33;7.40;;;;;;;10.94;70.56;102408.03;4997115;28;20049;-53
2021/12/16 13:45:36;;;;;;;13.70;6.13;;;;;;;10.96;71.22;102408.97;4998506;28;20111;-55
2021/12/16 13:49:12;;;;;;;14.00;5.97;;;;;;;10.94;70.53;102405.44;5001143;28;20119;-55
2021/12/16 13:58:18;;;;;;;13.93;5.40;;;;;;;10.96;70.06;102406.38;4998224;28;20096;-54